Time;durP1;ratioP1;P1;durP2;ratioP2;P2;SDS_P1;SDS_P2;PMS_P1;PMS_P2;Temp;Humidity;BMP_temperature;BMP_pressure;BME280_temperature;BME280_humidity;BME280_pressure;Samples;Min_cycle;Max_cycle;Signal;HPM_P1;HPM_P2
2023/09/14 00:00:50;;;;;;;6.40;5.20;;;16.10;99.90;;;;;;4971947;28;20074;-81
2023/09/14 00:03:16;;;;;;;5.38;4.70;;;16.00;99.90;;;;;;4958536;28;20038;-77
2023/09/14 00:05:43;;;;;;;6.75;4.30;;;16.00;99.90;;;;;;4970914;28;20026;-79
2023/09/14 00:08:10;;;;;;;5.68;4.93;;;15.90;99.90;;;;;;4956096;28;20031;-78
2023/09/14 00:10:37;;;;;;;5.68;4.78;;;15.90;99.90;;;;;;4977564;28;20069;-79
2023/09/14 00:13:03;;;;;;;6.22;4.70;;;15.80;99.90;;;;;;4975227;28;20066;-79
2023/09/14 00:15:30;;;;;;;4.97;3.97;;;15.80;99.90;;;;;;4972242;28;20523;-79
2023/09/14 00:17:56;;;;;;;6.38;4.55;;;15.80;99.90;;;;;;4970735;28;20065;-79
2023/09/14 00:20:24;;;;;;;9.57;4.47;;;15.80;99.90;;;;;;4974125;28;20313;-80
2023/09/14 00:22:50;;;;;;;5.07;4.10;;;15.70;99.90;;;;;;4977052;28;20038;-79
2023/09/14 00:25:17;;;;;;;5.57;3.88;;;15.70;99.90;;;;;;4974073;28;20494;-78
2023/09/14 00:27:43;;;;;;;5.90;3.90;;;15.80;99.90;;;;;;4959949;28;20619;-79
2023/09/14 00:30:10;;;;;;;4.90;3.33;;;15.70;99.90;;;;;;4973447;28;20057;-79
2023/09/14 00:32:38;;;;;;;4.13;2.83;;;15.70;99.90;;;;;;4981370;28;20122;-79
2023/09/14 00:35:06;;;;;;;5.28;3.28;;;15.60;99.90;;;;;;4973563;28;20043;-78
2023/09/14 00:37:35;;;;;;;3.95;2.72;;;15.60;99.90;;;;;;4956230;28;20035;-78
2023/09/14 00:40:03;;;;;;;2.63;2.40;;;15.50;99.90;;;;;;4954869;28;20034;-79
2023/09/14 00:42:38;;;;;;;2.53;2.08;;;15.50;99.90;;;;;;4960002;28;20027;-79
2023/09/14 00:45:08;;;;;;;3.95;2.40;;;15.40;99.90;;;;;;4971770;28;20030;-79
2023/09/14 00:47:36;;;;;;;4.82;2.63;;;15.40;99.90;;;;;;4972502;28;20031;-79
2023/09/14 00:50:04;;;;;;;2.55;2.35;;;15.30;99.90;;;;;;4952761;28;20118;-79
2023/09/14 00:52:33;;;;;;;2.20;2.00;;;15.30;99.90;;;;;;4965656;28;20031;-78
2023/09/14 00:55:00;;;;;;;3.05;2.28;;;15.30;99.90;;;;;;4972326;28;20030;-78
2023/09/14 00:57:28;;;;;;;2.13;2.00;;;15.20;99.90;;;;;;4961505;28;20487;-79
2023/09/14 00:59:54;;;;;;;3.28;1.75;;;15.30;99.90;;;;;;4971924;28;20030;-79
2023/09/14 01:02:20;;;;;;;2.75;1.70;;;15.20;99.90;;;;;;4971117;28;21742;-78
2023/09/14 01:04:47;;;;;;;2.45;2.25;;;15.20;99.90;;;;;;4955422;28;20030;-79
2023/09/14 01:07:15;;;;;;;2.13;1.92;;;15.20;99.90;;;;;;4973454;28;20134;-78
2023/09/14 01:09:41;;;;;;;2.20;1.88;;;15.20;99.90;;;;;;4972678;28;20030;-81
2023/09/14 01:12:08;;;;;;;2.30;2.05;;;15.20;99.90;;;;;;4944499;28;20518;-79
2023/09/14 01:14:48;;;;;;;2.55;2.08;;;15.20;99.90;;;;;;4954607;28;20031;-78
2023/09/14 01:17:20;;;;;;;2.30;2.10;;;15.20;99.90;;;;;;4953510;28;20046;-80
2023/09/14 01:20:11;;;;;;;3.20;1.90;;;15.20;99.90;;;;;;4972740;28;20022;-80
2023/09/14 01:23:15;;;;;;;2.83;2.20;;;15.10;99.90;;;;;;4951263;28;20381;-79
2023/09/14 01:25:45;;;;;;;2.90;2.35;;;15.10;99.90;;;;;;4951677;28;20015;-79
2023/09/14 01:28:13;;;;;;;3.13;2.47;;;15.10;99.90;;;;;;4959520;28;20031;-78
2023/09/14 01:30:42;;;;;;;3.33;2.20;;;15.10;99.90;;;;;;4961456;28;20161;-78
2023/09/14 01:33:11;;;;;;;3.42;2.38;;;15.10;99.90;;;;;;4972309;28;20043;-78
2023/09/14 01:36:02;;;;;;;1.98;1.85;;;15.10;99.90;;;;;;4966990;28;20114;-80
2023/09/14 01:38:30;;;;;;;2.22;1.90;;;15.10;99.90;;;;;;4952766;28;20038;-79
2023/09/14 01:40:57;;;;;;;2.30;1.85;;;15.10;99.90;;;;;;4960577;28;20055;-80
2023/09/14 01:43:24;;;;;;;1.92;1.83;;;15.00;99.90;;;;;;4954364;28;20054;-79
2023/09/14 01:45:51;;;;;;;5.05;3.08;;;15.00;99.90;;;;;;4954160;28;20511;-80
2023/09/14 01:48:18;;;;;;;2.75;1.60;;;15.00;99.90;;;;;;4966034;28;20168;-78
2023/09/14 01:50:44;;;;;;;1.85;1.75;;;15.00;99.90;;;;;;4973388;28;20041;-78
2023/09/14 01:53:11;;;;;;;2.00;1.80;;;15.00;99.90;;;;;;4972558;28;20118;-79
2023/09/14 01:55:37;;;;;;;2.10;1.80;;;15.00;99.90;;;;;;4967949;28;20165;-80
2023/09/14 01:58:03;;;;;;;1.98;1.77;;;14.90;99.90;;;;;;4955758;28;20613;-80
2023/09/14 02:00:30;;;;;;;2.17;1.98;;;14.90;99.90;;;;;;4949824;28;20046;-80
2023/09/14 02:02:56;;;;;;;2.15;1.80;;;14.90;99.90;;;;;;4951293;28;20118;-79
2023/09/14 02:05:21;;;;;;;2.67;2.22;;;14.90;99.90;;;;;;4961416;28;20493;-79
2023/09/14 02:07:47;;;;;;;3.10;2.30;;;14.90;99.90;;;;;;4973481;28;20043;-79
2023/09/14 02:10:14;;;;;;;2.05;1.95;;;14.90;99.90;;;;;;4958047;28;20038;-78
2023/09/14 02:12:40;;;;;;;2.78;2.33;;;14.90;99.90;;;;;;4958811;28;20097;-79
2023/09/14 02:15:08;;;;;;;3.03;2.67;;;14.90;99.90;;;;;;4955050;28;20042;-78
2023/09/14 02:17:37;;;;;;;3.42;2.80;;;14.90;99.90;;;;;;4938891;28;20049;-79
2023/09/14 02:20:05;;;;;;;2.97;2.67;;;14.90;99.90;;;;;;4970456;28;20031;-80
2023/09/14 02:22:31;;;;;;;4.63;2.70;;;14.90;99.90;;;;;;4954965;28;20743;-79
2023/09/14 02:24:57;;;;;;;3.53;2.70;;;14.90;99.90;;;;;;4971384;28;20022;-78
2023/09/14 02:27:23;;;;;;;3.03;2.72;;;14.90;99.90;;;;;;4956309;28;20034;-79
2023/09/14 02:29:53;;;;;;;2.78;2.58;;;14.80;99.90;;;;;;4972353;28;20423;-80
2023/09/14 02:32:19;;;;;;;3.08;2.88;;;14.80;99.90;;;;;;4971640;28;20176;-81
2023/09/14 02:34:45;;;;;;;3.15;2.85;;;14.80;99.90;;;;;;4969456;28;20031;-78
2023/09/14 02:37:10;;;;;;;3.13;2.83;;;14.80;99.90;;;;;;4953430;28;20031;-80
2023/09/14 02:39:36;;;;;;;3.17;2.88;;;14.80;99.90;;;;;;4953040;28;20031;-80
2023/09/14 02:42:02;;;;;;;3.22;2.78;;;14.80;99.90;;;;;;4954347;28;20050;-78
2023/09/14 02:44:28;;;;;;;3.67;3.28;;;14.80;99.90;;;;;;4953311;28;20070;-78
2023/09/14 02:46:54;;;;;;;3.38;3.08;;;14.70;99.90;;;;;;4972459;28;20045;-80
2023/09/14 02:49:20;;;;;;;4.75;3.20;;;14.80;99.90;;;;;;4976565;28;20034;-79
2023/09/14 02:51:46;;;;;;;3.10;2.70;;;14.80;99.90;;;;;;4958870;28;20035;-78
2023/09/14 02:54:11;;;;;;;3.30;3.00;;;14.80;99.90;;;;;;4971126;28;20026;-79
2023/09/14 02:56:37;;;;;;;3.60;3.13;;;14.80;99.90;;;;;;4957532;28;20765;-79
2023/09/14 02:59:03;;;;;;;4.18;3.13;;;14.80;99.90;;;;;;4954467;28;20062;-80
2023/09/14 03:01:29;;;;;;;3.65;3.08;;;14.80;99.90;;;;;;4953736;28;20034;-79
2023/09/14 03:03:55;;;;;;;3.58;2.95;;;14.70;99.90;;;;;;4954083;28;20027;-79
2023/09/14 03:06:21;;;;;;;3.30;3.00;;;14.70;99.90;;;;;;4952092;28;20031;-79
2023/09/14 03:08:48;;;;;;;2.78;2.58;;;14.70;99.90;;;;;;4953470;28;20051;-78
2023/09/14 03:11:14;;;;;;;3.70;3.40;;;14.70;99.90;;;;;;4971414;28;20027;-80
2023/09/14 03:13:39;;;;;;;3.08;2.85;;;14.80;99.90;;;;;;4949910;28;20092;-79
2023/09/14 03:16:05;;;;;;;4.30;3.25;;;14.80;99.90;;;;;;4949509;28;20124;-79
2023/09/14 03:18:31;;;;;;;3.83;3.03;;;14.80;99.90;;;;;;4958172;28;20058;-80
2023/09/14 03:20:57;;;;;;;4.07;3.00;;;14.80;99.90;;;;;;4978616;28;20045;-79
2023/09/14 03:23:23;;;;;;;4.93;3.20;;;14.80;99.90;;;;;;4937030;28;20050;-80
2023/09/14 03:25:50;;;;;;;3.40;3.10;;;14.70;99.90;;;;;;4953625;28;20092;-77
2023/09/14 03:28:18;;;;;;;4.47;2.83;;;14.80;99.90;;;;;;4953594;28;20031;-80
2023/09/14 03:30:45;;;;;;;3.10;2.85;;;14.70;99.90;;;;;;4952624;28;20038;-78
2023/09/14 03:33:11;;;;;;;4.85;3.08;;;14.70;99.90;;;;;;4957952;28;20037;-78
2023/09/14 03:35:37;;;;;;;3.35;3.05;;;14.70;99.90;;;;;;4953303;28;20023;-78
2023/09/14 03:38:03;;;;;;;3.25;2.85;;;14.70;99.90;;;;;;4954209;28;20043;-79
2023/09/14 03:40:29;;;;;;;3.45;3.15;;;14.70;99.90;;;;;;4954862;28;20031;-79
2023/09/14 03:42:55;;;;;;;3.58;3.28;;;14.70;99.90;;;;;;4972035;28;20118;-78
2023/09/14 03:45:21;;;;;;;4.32;3.47;;;14.70;99.90;;;;;;4962139;28;20042;-79
2023/09/14 03:47:49;;;;;;;3.70;3.40;;;14.70;99.90;;;;;;4972456;28;20103;-79
2023/09/14 03:50:15;;;;;;;3.75;3.45;;;14.70;99.90;;;;;;4957039;28;20142;-79
2023/09/14 03:52:41;;;;;;;5.03;3.55;;;14.70;99.90;;;;;;4960250;28;20038;-80
2023/09/14 03:55:07;;;;;;;4.57;3.88;;;14.70;99.90;;;;;;4971864;28;20680;-79
2023/09/14 03:57:33;;;;;;;3.70;3.38;;;14.60;99.90;;;;;;4965424;28;20379;-78
2023/09/14 04:00:00;;;;;;;3.83;3.50;;;14.60;99.90;;;;;;4941730;28;20027;-78
2023/09/14 04:02:28;;;;;;;3.92;3.53;;;14.60;99.90;;;;;;4959881;28;20041;-79
2023/09/14 04:04:53;;;;;;;3.83;3.28;;;14.50;99.90;;;;;;4955526;28;20560;-77
2023/09/14 04:07:19;;;;;;;3.53;3.22;;;14.50;99.90;;;;;;4943827;28;20030;-78
2023/09/14 04:09:45;;;;;;;4.90;3.13;;;14.50;99.90;;;;;;4957580;28;20034;-78
2023/09/14 04:12:11;;;;;;;3.65;3.35;;;14.50;99.90;;;;;;4960357;28;20423;-78
2023/09/14 04:14:37;;;;;;;3.22;2.92;;;14.50;99.90;;;;;;4974278;28;20030;-78
2023/09/14 04:17:03;;;;;;;3.42;3.13;;;14.50;99.90;;;;;;4957272;28;20504;-78
2023/09/14 04:19:30;;;;;;;3.10;2.65;;;14.50;99.90;;;;;;4966118;28;20086;-78
2023/09/14 04:21:56;;;;;;;3.25;2.70;;;14.50;99.90;;;;;;4962759;28;20022;-78
2023/09/14 04:24:22;;;;;;;3.63;3.10;;;14.50;99.90;;;;;;4973278;28;20050;-78
2023/09/14 04:26:48;;;;;;;2.83;2.60;;;14.50;99.90;;;;;;4957486;28;20041;-79
2023/09/14 04:29:14;;;;;;;3.20;2.90;;;14.50;99.90;;;;;;4954914;28;20808;-79
2023/09/14 04:31:41;;;;;;;3.80;2.88;;;14.50;99.90;;;;;;4968279;28;20034;-79
2023/09/14 04:34:07;;;;;;;3.90;2.72;;;14.50;99.90;;;;;;4973132;28;20055;-78
2023/09/14 04:36:34;;;;;;;3.40;2.83;;;14.40;99.90;;;;;;4963816;28;20118;-78
2023/09/14 04:39:00;;;;;;;3.20;2.83;;;14.40;99.90;;;;;;4967781;28;20039;-79
2023/09/14 04:41:26;;;;;;;4.28;3.83;;;14.40;99.90;;;;;;4970419;28;20033;-79
2023/09/14 04:43:52;;;;;;;4.43;3.85;;;14.40;99.90;;;;;;4955569;28;20026;-79
2023/09/14 04:46:18;;;;;;;4.35;3.95;;;14.40;99.90;;;;;;4956635;28;20049;-80
2023/09/14 04:48:44;;;;;;;5.30;4.32;;;14.40;99.90;;;;;;4954198;28;20031;-79
2023/09/14 04:51:12;;;;;;;4.38;3.97;;;14.40;99.90;;;;;;4962062;28;20046;-80
2023/09/14 04:53:38;;;;;;;4.95;4.45;;;14.40;99.90;;;;;;4953708;28;20033;-78
2023/09/14 04:56:04;;;;;;;4.60;4.20;;;14.30;99.90;;;;;;4956321;28;20415;-79
2023/09/14 04:58:30;;;;;;;4.25;3.85;;;14.30;99.90;;;;;;4960391;28;20721;-79
2023/09/14 05:00:56;;;;;;;4.85;4.35;;;14.30;99.90;;;;;;4958749;28;20041;-78
2023/09/14 05:03:23;;;;;;;5.35;4.05;;;14.30;99.90;;;;;;4952221;28;20042;-79
2023/09/14 05:05:54;;;;;;;4.47;4.07;;;14.20;99.90;;;;;;4969218;28;20051;-81
2023/09/14 05:08:20;;;;;;;4.53;3.92;;;14.20;99.90;;;;;;4969499;28;20031;-80
2023/09/14 05:10:50;;;;;;;5.10;3.80;;;14.20;99.90;;;;;;4956380;28;20030;-80
2023/09/14 05:13:20;;;;;;;4.72;4.03;;;14.20;99.90;;;;;;4954074;28;20027;-81
2023/09/14 05:15:47;;;;;;;3.95;3.35;;;14.20;99.90;;;;;;4961549;28;20031;-81
2023/09/14 05:18:13;;;;;;;4.40;3.10;;;14.20;99.90;;;;;;4955353;28;20030;-81
2023/09/14 05:20:49;;;;;;;3.80;2.97;;;14.20;99.90;;;;;;4973196;28;20027;-81
2023/09/14 05:23:15;;;;;;;4.75;2.70;;;14.20;99.90;;;;;;4958273;28;20043;-81
2023/09/14 05:25:41;;;;;;;3.00;2.70;;;14.20;99.90;;;;;;4955642;28;20029;-81
2023/09/14 05:28:08;;;;;;;10.25;3.42;;;14.20;99.90;;;;;;4955362;28;20109;-78
2023/09/14 05:30:35;;;;;;;2.45;1.85;;;14.20;99.90;;;;;;4958183;28;20030;-79
2023/09/14 05:33:01;;;;;;;1.73;1.60;;;14.20;99.90;;;;;;4956564;28;20122;-79
2023/09/14 05:35:27;;;;;;;2.80;1.40;;;14.10;99.90;;;;;;4972646;28;20134;-81
2023/09/14 05:37:53;;;;;;;3.45;1.45;;;14.10;99.90;;;;;;4978089;28;20030;-80
2023/09/14 05:40:20;;;;;;;1.80;1.55;;;14.10;99.90;;;;;;4954195;28;20064;-81
2023/09/14 05:42:45;;;;;;;1.20;1.02;;;14.10;99.90;;;;;;4961067;28;20034;-80
2023/09/14 05:45:12;;;;;;;2.17;1.10;;;14.00;99.90;;;;;;4954131;28;20568;-80
2023/09/14 05:47:39;;;;;;;1.35;1.02;;;14.10;99.90;;;;;;4961083;28;20403;-81
2023/09/14 05:50:08;;;;;;;2.92;1.30;;;14.10;99.90;;;;;;4954137;28;20097;-83
2023/09/14 05:52:35;;;;;;;1.60;0.90;;;14.10;99.90;;;;;;4928257;28;20038;-81
2023/09/14 05:55:05;;;;;;;1.92;1.00;;;14.10;99.90;;;;;;4947367;28;20125;-83
2023/09/14 05:57:32;;;;;;;2.38;1.10;;;14.10;99.90;;;;;;4967641;28;20487;-81
2023/09/14 05:59:59;;;;;;;1.00;0.82;;;14.10;99.90;;;;;;4962236;28;20054;-82
2023/09/14 06:02:26;;;;;;;1.40;0.80;;;14.10;99.90;;;;;;4958697;28;20034;-81
2023/09/14 06:04:52;;;;;;;2.95;1.00;;;14.10;99.90;;;;;;4970426;28;20023;-81
2023/09/14 06:07:18;;;;;;;1.88;0.93;;;14.10;99.90;;;;;;4956550;28;20034;-83
2023/09/14 06:09:44;;;;;;;1.10;0.80;;;14.10;99.90;;;;;;4970931;28;20045;-82
2023/09/14 06:12:09;;;;;;;1.58;0.70;;;14.10;99.90;;;;;;4977163;28;20034;-82
2023/09/14 06:14:37;;;;;;;1.85;0.50;;;14.10;99.90;;;;;;4957938;28;20034;-81
2023/09/14 06:17:03;;;;;;;2.08;0.70;;;14.20;99.90;;;;;;4943533;28;20054;-82
2023/09/14 06:19:29;;;;;;;2.13;0.80;;;14.10;99.90;;;;;;4979282;28;20049;-79
2023/09/14 06:21:55;;;;;;;1.85;0.80;;;14.20;99.90;;;;;;4983054;28;20113;-78
2023/09/14 06:24:20;;;;;;;1.10;0.80;;;14.20;99.90;;;;;;4970177;28;20039;-82
2023/09/14 06:26:47;;;;;;;0.63;0.63;;;14.20;99.90;;;;;;4970859;28;20077;-79
2023/09/14 06:29:15;;;;;;;1.48;1.30;;;14.20;99.90;;;;;;4971862;28;20035;-80
2023/09/14 06:31:42;;;;;;;0.80;0.60;;;14.20;99.90;;;;;;4978410;28;20031;-81
2023/09/14 06:34:07;;;;;;;0.82;0.63;;;14.20;99.90;;;;;;4970976;28;20093;-81
2023/09/14 06:36:34;;;;;;;0.52;0.52;;;14.20;99.90;;;;;;4953778;28;20420;-81
2023/09/14 06:39:00;;;;;;;2.33;1.10;;;14.30;99.90;;;;;;4970567;28;20038;-80
2023/09/14 06:41:25;;;;;;;1.02;0.80;;;14.30;99.90;;;;;;4973405;28;20554;-82
2023/09/14 06:43:51;;;;;;;1.10;0.80;;;14.30;99.90;;;;;;4976815;28;20347;-81
2023/09/14 06:46:17;;;;;;;1.70;0.77;;;14.40;99.90;;;;;;4969884;28;20058;-81
2023/09/14 06:48:43;;;;;;;2.40;0.70;;;14.40;99.90;;;;;;4975589;28;20514;-79
2023/09/14 06:51:09;;;;;;;1.35;1.25;;;14.40;99.90;;;;;;4978737;28;20034;-79
2023/09/14 06:53:35;;;;;;;0.93;0.70;;;14.50;99.90;;;;;;4954903;28;20043;-79
2023/09/14 06:56:08;;;;;;;1.23;0.60;;;14.50;99.90;;;;;;4972684;28;20042;-78
2023/09/14 06:58:34;;;;;;;0.95;0.77;;;14.60;99.90;;;;;;4966810;28;20038;-78
2023/09/14 07:01:04;;;;;;;1.50;1.00;;;14.60;99.90;;;;;;4976743;28;20030;-79
2023/09/14 07:03:31;;;;;;;5.10;0.80;;;14.60;99.90;;;;;;4968228;28;20026;-80
2023/09/14 07:05:57;;;;;;;1.15;1.05;;;14.60;99.90;;;;;;4971436;28;20023;-81
2023/09/14 07:08:23;;;;;;;0.77;0.75;;;14.60;99.90;;;;;;4970164;28;20038;-79
2023/09/14 07:10:49;;;;;;;1.20;0.77;;;14.70;99.90;;;;;;4973577;28;20046;-79
2023/09/14 07:13:15;;;;;;;1.02;0.93;;;14.70;99.90;;;;;;4972644;28;20043;-80
2023/09/14 07:15:41;;;;;;;1.27;0.70;;;14.80;99.90;;;;;;4974061;28;20057;-80
2023/09/14 07:18:09;;;;;;;1.50;0.90;;;14.80;99.90;;;;;;4957265;28;20082;-80
2023/09/14 07:20:35;;;;;;;1.13;0.90;;;14.80;99.90;;;;;;4979234;28;20030;-80
2023/09/14 07:23:01;;;;;;;1.13;1.00;;;14.80;99.90;;;;;;4971220;28;20042;-80
2023/09/14 07:25:28;;;;;;;1.00;0.90;;;14.70;99.90;;;;;;4966592;28;20062;-81
2023/09/14 07:27:54;;;;;;;0.80;0.80;;;14.70;99.90;;;;;;4967389;28;20062;-79
2023/09/14 07:30:19;;;;;;;0.80;0.80;;;14.80;99.90;;;;;;4971070;28;20459;-79
2023/09/14 07:32:45;;;;;;;1.40;1.00;;;14.70;99.90;;;;;;4974919;28;20142;-81
2023/09/14 07:35:12;;;;;;;0.90;0.90;;;14.80;99.90;;;;;;4975620;28;20065;-81
2023/09/14 07:37:38;;;;;;;2.20;0.98;;;14.80;99.90;;;;;;4979026;28;20026;-79
2023/09/14 07:40:05;;;;;;;5.28;1.60;;;14.90;99.90;;;;;;4940624;28;20042;-81
2023/09/14 07:42:30;;;;;;;2.17;1.98;;;14.90;99.90;;;;;;4974557;28;20114;-79
2023/09/14 07:44:56;;;;;;;1.50;1.40;;;14.90;99.90;;;;;;4974312;28;20496;-80
2023/09/14 07:47:29;;;;;;;3.78;1.98;;;14.90;99.90;;;;;;4980292;28;20462;-82
2023/09/14 07:49:58;;;;;;;1.23;1.13;;;14.90;99.90;;;;;;4956494;28;20053;-80
2023/09/14 07:52:24;;;;;;;1.65;1.08;;;15.00;99.90;;;;;;4974611;28;20048;-80
2023/09/14 07:54:50;;;;;;;1.48;1.35;;;15.00;99.90;;;;;;4958360;28;20121;-81
2023/09/14 07:57:16;;;;;;;2.22;1.48;;;15.00;99.90;;;;;;4956228;28;20031;-81
2023/09/14 07:59:41;;;;;;;1.45;1.10;;;15.10;99.90;;;;;;4975980;28;20038;-81
2023/09/14 08:02:08;;;;;;;1.38;1.00;;;15.10;99.90;;;;;;4961323;28;20035;-81
2023/09/14 08:04:34;;;;;;;1.90;0.90;;;15.10;99.90;;;;;;4974054;28;20130;-81
2023/09/14 08:06:59;;;;;;;1.75;0.82;;;15.20;99.90;;;;;;4980883;28;20074;-80
2023/09/14 08:09:26;;;;;;;2.88;1.00;;;15.20;99.90;;;;;;4976309;28;20128;-81
2023/09/14 08:11:51;;;;;;;1.30;1.20;;;15.20;99.90;;;;;;4973555;28;20034;-81
2023/09/14 08:14:17;;;;;;;2.67;1.05;;;15.30;99.90;;;;;;4976603;28;20027;-80
2023/09/14 08:16:43;;;;;;;1.23;1.02;;;15.40;99.90;;;;;;4975827;28;20030;-81
2023/09/14 08:19:09;;;;;;;1.75;1.10;;;15.40;99.90;;;;;;4973473;28;20035;-81
2023/09/14 08:21:35;;;;;;;1.30;1.20;;;15.50;99.90;;;;;;4962744;28;20530;-80
2023/09/14 08:24:01;;;;;;;1.20;1.10;;;15.50;99.90;;;;;;4975845;28;20177;-80
2023/09/14 08:26:26;;;;;;;1.33;1.05;;;15.60;99.90;;;;;;4962645;28;20027;-81
2023/09/14 08:28:52;;;;;;;1.83;1.40;;;15.60;99.90;;;;;;4954502;28;20035;-81
2023/09/14 08:31:18;;;;;;;1.17;1.08;;;15.70;99.90;;;;;;4978366;28;20098;-81
2023/09/14 08:33:43;;;;;;;1.00;0.90;;;15.80;99.90;;;;;;4971104;28;20398;-79
2023/09/14 08:36:09;;;;;;;1.30;0.82;;;15.90;99.90;;;;;;4976193;28;20043;-81
2023/09/14 08:38:35;;;;;;;0.60;0.60;;;16.00;99.90;;;;;;4971563;28;20041;-81
2023/09/14 08:41:17;;;;;;;1.20;1.00;;;16.10;99.90;;;;;;4977395;28;20126;-81
2023/09/14 08:43:45;;;;;;;1.35;0.98;;;16.10;99.90;;;;;;4970090;28;20391;-81
2023/09/14 08:46:11;;;;;;;0.70;0.70;;;16.10;99.90;;;;;;4972194;28;20027;-80
2023/09/14 08:48:42;;;;;;;1.38;0.90;;;16.10;99.90;;;;;;4971893;28;20081;-81
2023/09/14 08:51:10;;;;;;;1.35;1.08;;;16.20;99.90;;;;;;4977647;28;20034;-80
2023/09/14 08:53:38;;;;;;;1.25;1.10;;;16.20;99.90;;;;;;4971954;28;21157;-81
2023/09/14 08:56:23;;;;;;;1.05;0.90;;;16.30;99.90;;;;;;4958049;28;20053;-80
2023/09/14 08:58:50;;;;;;;1.33;0.77;;;16.30;99.90;;;;;;4971557;28;20070;-79
2023/09/14 09:01:19;;;;;;;1.20;1.10;;;16.40;99.90;;;;;;4974706;28;20499;-79
2023/09/14 09:03:44;;;;;;;2.35;0.70;;;16.30;99.90;;;;;;4960367;28;20058;-81
2023/09/14 09:06:11;;;;;;;0.88;0.82;;;16.30;99.90;;;;;;4955482;28;20067;-79
2023/09/14 09:08:37;;;;;;;2.63;1.02;;;16.30;99.90;;;;;;4976132;28;20023;-80
2023/09/14 09:11:04;;;;;;;2.08;1.10;;;16.20;99.90;;;;;;4974405;28;20063;-79
2023/09/14 09:13:34;;;;;;;1.20;1.00;;;16.00;99.90;;;;;;4974994;28;20023;-78
2023/09/14 09:16:01;;;;;;;1.17;1.08;;;15.90;99.90;;;;;;4974050;28;20049;-79
2023/09/14 09:18:27;;;;;;;1.10;1.00;;;15.90;99.90;;;;;;4971744;28;20102;-79
2023/09/14 09:20:53;;;;;;;1.83;1.60;;;16.00;99.90;;;;;;4975301;28;20021;-78
2023/09/14 09:23:22;;;;;;;2.45;1.58;;;16.00;99.90;;;;;;4953945;28;20372;-79
2023/09/14 09:25:54;;;;;;;2.10;1.60;;;16.20;99.90;;;;;;4954837;28;20035;-79
2023/09/14 09:28:46;;;;;;;1.60;1.50;;;16.20;99.90;;;;;;4970736;28;20050;-79
2023/09/14 09:31:11;;;;;;;1.95;1.50;;;16.30;99.90;;;;;;4973973;28;20653;-80
2023/09/14 09:33:37;;;;;;;1.85;1.40;;;16.30;99.90;;;;;;4970479;28;20038;-79
2023/09/14 09:36:19;;;;;;;3.30;1.67;;;16.30;99.90;;;;;;4970683;28;20065;-79
2023/09/14 09:38:45;;;;;;;1.88;1.45;;;16.40;99.90;;;;;;4963288;28;20277;-79
2023/09/14 09:41:12;;;;;;;3.33;2.60;;;16.50;99.90;;;;;;4954505;28;20038;-79
2023/09/14 09:43:40;;;;;;;2.83;1.77;;;16.50;99.90;;;;;;4965805;28;20747;-80
2023/09/14 09:46:17;;;;;;;2.30;1.60;;;16.60;99.90;;;;;;4970942;28;20038;-79
2023/09/14 09:48:43;;;;;;;2.17;1.30;;;16.60;99.90;;;;;;4966859;28;20042;-78
2023/09/14 09:51:09;;;;;;;1.63;1.40;;;16.60;99.90;;;;;;4974126;28;20035;-78
2023/09/14 09:53:36;;;;;;;1.75;1.15;;;16.60;99.90;;;;;;4974827;28;20049;-79
2023/09/14 09:56:02;;;;;;;1.70;1.20;;;16.70;99.90;;;;;;4963587;28;20038;-77
2023/09/14 09:58:38;;;;;;;1.58;1.48;;;16.70;99.90;;;;;;4967436;28;20120;-79
2023/09/14 10:01:04;;;;;;;1.42;1.17;;;16.70;99.90;;;;;;4968284;28;20042;-79
2023/09/14 10:03:31;;;;;;;1.85;1.27;;;16.70;99.90;;;;;;4967886;28;20303;-79
2023/09/14 10:05:57;;;;;;;1.48;1.10;;;16.60;99.90;;;;;;4969824;28;20100;-79
2023/09/14 10:08:22;;;;;;;1.08;1.05;;;16.60;99.90;;;;;;4956995;28;20474;-78
2023/09/14 10:10:53;;;;;;;1.17;0.82;;;16.60;99.90;;;;;;4963718;28;20562;-79
2023/09/14 10:13:23;;;;;;;1.05;0.80;;;16.70;99.90;;;;;;4963533;28;20556;-79
2023/09/14 10:15:51;;;;;;;1.95;0.80;;;16.90;99.90;;;;;;4959293;28;20098;-79
2023/09/14 10:18:20;;;;;;;1.13;1.00;;;17.10;99.90;;;;;;4964541;28;20031;-78
2023/09/14 10:20:48;;;;;;;1.73;0.90;;;17.20;99.90;;;;;;4964477;28;20035;-79
2023/09/14 10:23:16;;;;;;;1.27;1.10;;;17.40;99.90;;;;;;4965121;28;20169;-78
2023/09/14 10:25:46;;;;;;;3.63;1.10;;;17.50;99.90;;;;;;4963183;28;20391;-78
2023/09/14 10:28:13;;;;;;;2.17;1.30;;;17.50;99.90;;;;;;4964361;28;20095;-79
2023/09/14 10:30:39;;;;;;;1.50;1.00;;;17.50;99.90;;;;;;4963504;28;20030;-78
2023/09/14 10:33:07;;;;;;;2.85;1.05;;;17.50;99.90;;;;;;4964063;28;20041;-78
2023/09/14 10:35:33;;;;;;;1.45;1.27;;;17.50;99.90;;;;;;4947655;28;20039;-78
2023/09/14 10:38:01;;;;;;;2.28;1.20;;;17.50;99.90;;;;;;4964226;28;20652;-78
2023/09/14 10:40:28;;;;;;;1.20;1.10;;;17.50;99.90;;;;;;4963619;28;20038;-78
2023/09/14 10:42:54;;;;;;;1.33;0.90;;;17.50;99.90;;;;;;4946950;28;20037;-77
2023/09/14 10:45:20;;;;;;;3.40;1.08;;;17.50;99.90;;;;;;4964066;28;20707;-77
2023/09/14 10:47:50;;;;;;;1.30;1.15;;;17.50;99.90;;;;;;4964016;28;20723;-78
2023/09/14 10:50:19;;;;;;;2.97;1.40;;;17.50;99.90;;;;;;4948501;28;20039;-79
2023/09/14 10:52:45;;;;;;;1.25;1.15;;;17.60;99.90;;;;;;4942493;28;20046;-78
2023/09/14 10:55:12;;;;;;;1.25;1.15;;;17.70;99.90;;;;;;4954804;28;20026;-79
2023/09/14 10:57:41;;;;;;;1.20;1.10;;;17.70;99.90;;;;;;4957958;28;20038;-78
2023/09/14 11:00:08;;;;;;;1.40;1.30;;;17.70;99.90;;;;;;4968364;28;20034;-78
2023/09/14 11:02:37;;;;;;;1.20;1.10;;;17.80;99.90;;;;;;4947241;28;20118;-78
2023/09/14 11:05:17;;;;;;;1.38;1.27;;;17.80;99.90;;;;;;4966884;28;20479;-78
2023/09/14 11:07:44;;;;;;;1.63;1.40;;;17.80;99.90;;;;;;4964698;28;20031;-77
2023/09/14 11:10:15;;;;;;;1.58;1.02;;;17.90;99.90;;;;;;4969442;28;20026;-80
2023/09/14 11:12:41;;;;;;;5.22;1.30;;;18.00;99.90;;;;;;4966685;28;20031;-79
2023/09/14 11:15:11;;;;;;;1.67;1.40;;;18.10;99.90;;;;;;4969769;28;20101;-78
2023/09/14 11:17:41;;;;;;;1.20;1.10;;;18.20;99.90;;;;;;4972727;28;20062;-79
2023/09/14 11:20:28;;;;;;;1.48;1.38;;;18.30;99.90;;;;;;4955407;28;20162;-80
2023/09/14 11:23:02;;;;;;;1.55;1.25;;;18.30;99.90;;;;;;4967672;28;20066;-80
2023/09/14 11:25:36;;;;;;;2.00;1.10;;;18.30;99.90;;;;;;4971034;28;20043;-80
2023/09/14 11:28:06;;;;;;;1.35;1.00;;;18.30;99.90;;;;;;4971997;28;20456;-80
2023/09/14 11:30:33;;;;;;;1.23;0.98;;;18.20;99.90;;;;;;4970416;28;20038;-81
2023/09/14 11:33:03;;;;;;;2.25;0.90;;;18.30;99.90;;;;;;4973675;28;20063;-80
2023/09/14 11:35:34;;;;;;;1.63;0.90;;;18.20;99.90;;;;;;4976254;28;20064;-80
2023/09/14 11:38:02;;;;;;;1.70;1.25;;;18.20;99.90;;;;;;4974997;28;20441;-80
2023/09/14 11:40:32;;;;;;;1.13;1.02;;;18.30;99.90;;;;;;4972755;28;20038;-80
2023/09/14 11:43:07;;;;;;;1.17;1.08;;;18.40;99.90;;;;;;4974014;28;20062;-80
2023/09/14 11:45:39;;;;;;;2.45;1.42;;;18.60;99.90;;;;;;4974110;28;20055;-80
2023/09/14 11:48:09;;;;;;;2.15;1.48;;;18.80;99.90;;;;;;4971749;28;20042;-80
2023/09/14 11:50:35;;;;;;;1.65;1.55;;;19.00;99.90;;;;;;4975402;28;20030;-81
2023/09/14 11:53:01;;;;;;;1.48;1.35;;;19.10;99.90;;;;;;4974284;28;20442;-79
2023/09/14 11:55:27;;;;;;;2.35;1.27;;;19.20;99.90;;;;;;4973544;28;20035;-80
2023/09/14 11:57:56;;;;;;;1.77;1.27;;;19.40;99.90;;;;;;4973351;28;20031;-80
2023/09/14 12:00:23;;;;;;;1.15;1.05;;;19.40;99.90;;;;;;4972838;28;20019;-80
2023/09/14 12:02:49;;;;;;;1.98;1.20;;;19.50;99.90;;;;;;4974475;28;20121;-78
2023/09/14 12:05:15;;;;;;;1.38;1.15;;;19.50;99.90;;;;;;4973398;28;20026;-78
2023/09/14 12:07:42;;;;;;;1.73;1.52;;;19.50;99.90;;;;;;4975835;28;20622;-80
2023/09/14 12:10:21;;;;;;;2.05;1.48;;;19.60;99.90;;;;;;4972683;28;20092;-80
2023/09/14 12:12:47;;;;;;;2.38;2.17;;;19.80;99.90;;;;;;4969042;28;20177;-79
2023/09/14 12:15:19;;;;;;;2.58;2.38;;;19.90;99.90;;;;;;4972062;28;20791;-80
2023/09/14 12:17:54;;;;;;;3.15;2.40;;;20.20;99.90;;;;;;4970308;28;20442;-79
2023/09/14 12:20:21;;;;;;;2.85;2.53;;;20.40;99.90;;;;;;4972904;28;20026;-79
2023/09/14 12:22:47;;;;;;;2.40;2.20;;;20.50;99.90;;;;;;4976539;28;20514;-79
2023/09/14 12:25:14;;;;;;;3.70;2.42;;;20.70;99.90;;;;;;4973282;28;20760;-78
2023/09/14 12:27:41;;;;;;;2.38;2.17;;;21.00;99.90;;;;;;4972442;28;20035;-78
2023/09/14 12:30:09;;;;;;;3.05;2.75;;;21.20;99.90;;;;;;4972149;28;20122;-80
2023/09/14 12:32:38;;;;;;;2.97;2.63;;;21.30;99.90;;;;;;4971579;28;20033;-79
2023/09/14 12:35:05;;;;;;;3.58;2.67;;;21.30;99.90;;;;;;4970878;28;20042;-80
2023/09/14 12:37:31;;;;;;;3.60;3.03;;;21.00;99.90;;;;;;4972574;28;20472;-79
2023/09/14 12:40:01;;;;;;;3.20;2.85;;;21.00;99.90;;;;;;4973396;28;20046;-79
2023/09/14 12:42:27;;;;;;;3.17;2.80;;;21.00;99.90;;;;;;4970501;28;20022;-79
2023/09/14 12:44:53;;;;;;;3.20;2.70;;;21.00;99.10;;;;;;4972045;28;20041;-80
2023/09/14 12:47:19;;;;;;;3.55;3.25;;;20.90;99.90;;;;;;4972976;28;20046;-79
2023/09/14 12:49:45;;;;;;;3.10;2.80;;;20.90;99.90;;;;;;4974369;28;20503;-79